Greater Kankakee Airport
KIKK : now visible

Airfield :











YOU CAN JOIN US ON...

 
LOGIN :

Register | Disclaimer

   EN    FR    IT 

 









Legend :    VFR   Marginal VFR   IFR   Intensive IFR   Very Intensive IFR
Visi :
Ceiling :
>= 8 km
>= 3000ft
5 to 8 km
1000 to 3000 ft
1500m to 5 km
500 to 1000 ft
800 to 1500m
200 to 500 ft
< 800m
< 200 ft
Symbols :   Thunderstorms  Fog  Heavy snow  Heavy precipitations  Wind > 20 kt






- Airport Elevation : 630 ft


KIKK - Greater Kankakee

CURRENT METAR :
  • 101815Z AUTO 11014G20KT 10SM -RA BKN065 BKN070 OVC085 17/13 A2947 RMK AO2 T01660126 TSNO

EXPIRED METARs :
  • 101755Z AUTO 12012G15KT 10SM -RA SCT050 OVC075 18/13 A2949 RMK AO2 T01820134 10190 20100 TSNO
  • 101735Z AUTO 11009KT 10SM -DZ SCT050 BKN070 OVC080 19/13 A2950 RMK AO2 T01860131 TSNO
  • 101715Z AUTO 10009KT 10SM -DZ SCT036 BKN090 OVC110 19/12 A2951 RMK AO2 T01860124 TSNO
  • 101655Z AUTO 09009KT 10SM BKN110 19/12 A2951 RMK AO2 T01860120 TSNO
  • 101635Z AUTO 07009KT 10SM BKN120 18/13 A2953 RMK AO2 T01830132 TSNO
  • 101615Z AUTO 07009KT 10SM SCT120 18/12 A2954 RMK AO2 T01750124 TSNO
  • 101555Z AUTO 07009KT 10SM SCT120 16/12 A2956 RMK AO2 T01560123 TSNO
  • 101535Z AUTO 07009KT 10SM SCT055 SCT085 BKN120 14/12 A2957 RMK AO2 T01410115 TSNO

TAF N/A
KZAU FIR / North America



MET'MAP, your aeronautical weather chart ! - Copyright ORBIFLY December 2007 - Disclaimer

ORBIFLY MET'MAP TEAM :

Programming & Development : Alexandra Zaïnal
Concept & original design : Baudouin d'Aumeries
Assistance for programming : Marc-Olivier Méhu
Technical & hardware support : Manuel Goepfert

Contact : metmap@orbifly.com




SOURCES & CREDITS :

   NOAA       Earth
Advisory